Station: Jervois  

  Atmospheric Gas Attenuation - ITU Rec 676-11   ----------------- dB/100km -----------------
Date Time Temp RH % AH g/m3 Dew Point Wind Direction Speed kph Gust kph Barometer mB Rainfall Since 9am 24GHz 47GHz 76GHz 122GHz 134GHz 241GHz
02/09 21:10 20.9 36 6.56 5.3 11 11 1018 0 15.0 21.2 29.5 76.8 66.6 227.8
02/09 21:00 19.4 41 6.84 5.8 11 13 1017.8 0 15.6 21.9 31.0 80.8 71.0 243.2
02/09 20:50 19.5 38 6.38 4.8 9 9 1017.9 0 14.6 21.3 29.3 76.5 65.7 224.5
02/09 20:40 19.5 38 6.38 4.8 6 7 1017.8 0 14.6 21.3 29.3 76.5 65.7 224.5
02/09 20:30 20 38 6.57 5.3 9 9 1017.6 0 15.0 21.4 29.8 77.7 67.4 230.6
02/09 20:20 19.9 39 6.7 5.5 7 11 1017.7 0 15.3 21.6 30.3 79.0 69.0 236.1
02/09 20:10 20.2 38 6.64 5.4 7 9 1017.6 0 15.2 21.4 30.0 78.2 68.1 232.9
02/09 20:00 20.8 38 6.88 6 9 11 1017.4 0 15.6 21.6 30.6 79.8 70.2 240.6
02/09 19:50 21.1 35 6.45 5.1 7 11 1017.4 0 14.7 21.0 29.0 75.6 65.2 222.9
02/09 19:40 21.1 36 6.63 5.5 0 6 1017.3 0 15.1 21.2 29.6 77.2 67.2 229.9
02/09 19:30 21.6 34 6.45 5.1 2 6 1017 0 14.7 20.8 28.8 75.1 64.8 221.4
02/09 19:20 22.3 32 6.32 4.8 6 9 1017 0 14.4 20.5 28.1 73.3 62.8 214.6
02/09 19:10 22.3 32 6.32 4.8 6 9 1016.9 0 14.4 20.5 28.1 73.3 62.8 214.6
02/09 19:00 23.1 31 6.41 5.1 0 0 1016.7 0 14.6 20.5 28.1 73.4 63.1 215.9
02/09 18:50 24.3 29 6.42 5.1 0 0 1016.7 0 14.6 20.2 27.8 72.4 62.3 213.2
02/09 18:40 24.8 27 6.15 4.5 0 0 1016.6 0 14.0 19.8 26.8 69.7 59.1 201.9
02/09 18:30 25.8 26 6.26 4.9 0 0 1016.4 0 14.2 19.7 26.8 69.8 59.5 203.5
02/09 18:20 27 25 6.43 5.3 0 0 1016.4 0 14.5 19.6 26.9 70.2 60.4 206.7
02/09 18:10 29.3 22 6.42 5.4 0 0 1016.4 0 14.4 19.2 26.2 68.2 58.7 200.8
02/09 18:00 30 20 6.07 4.6 0 0 1016.2 0 13.6 18.6 24.9 64.9 54.7 187.0
02/09 17:50 30.7 18 5.67 3.7 4 9 1016.2 0 12.8 18.0 23.6 61.2 50.4 172.0
02/09 17:40 31.4 16 5.23 2.6 6 11 1016.2 0 11.9 17.4 22.1 57.4 45.9 156.1
02/09 17:30 31.4 15 4.91 1.7 6 11 1016 0 11.2 17.0 21.2 55.0 42.9 145.7
02/09 17:20 31.7 14 4.65 1 9 15 1016.1 0 10.7 16.6 20.4 52.9 40.4 136.9
02/09 17:10 31.8 14 4.68 1 11 15 1015.9 0 10.7 16.7 20.5 53.0 40.6 137.6
02/09 17:00 32 14 4.73 1.2 9 15 1015.9 0 10.8 16.7 20.6 53.3 41.0 138.9
02/09 16:50 32.2 15 5.12 2.3 11 15 1015.9 0 11.6 17.1 21.6 56.0 44.5 151.1
02/09 16:40 32.3 14 4.8 1.4 7 13 1015.9 0 11.0 16.7 20.7 53.6 41.5 140.7
02/09 16:30 32.6 14 4.88 1.7 7 9 1015.9 0 11.1 16.7 20.8 54.0 42.1 142.7
02/09 16:20 32.5 13 4.51 0.6 9 15 1015.9 0 10.4 16.3 19.9 51.4 38.8 131.2
02/09 16:10 32.9 14 4.96 1.9 9 20 1015.9 0 11.3 16.8 21.0 54.4 42.6 144.8
02/09 16:00 32.6 14 4.88 1.7 13 19 1015.9 0 11.1 16.7 20.8 54.0 42.1 142.7
02/09 15:50 33.1 14 5.01 2.1 9 17 1016.1 0 11.4 16.8 21.1 54.7 43.0 146.0
02/09 15:40 32.6 14 4.88 1.7 7 11 1016.1 0 11.1 16.7 20.8 54.0 42.1 142.7
02/09 15:30 32.5 15 5.2 2.5 7 13 1016.1 0 11.8 17.1 21.8 56.4 45.0 153.2
02/09 15:20 33.1 15 5.37 3 6 11 1016.2 0 12.1 17.2 22.1 57.3 46.3 157.6
02/09 15:10 32.7 14 4.91 1.7 15 20 1016.4 0 11.2 16.8 20.9 54.2 42.3 143.6
02/09 15:00 33.1 15 5.37 3 13 19 1016.3 0 12.1 17.2 22.1 57.3 46.3 157.6
02/09 14:50 32.6 15 5.23 2.6 15 20 1016.5 0 11.8 17.1 21.8 56.6 45.3 154.0
02/09 14:40 32.9 16 5.67 3.8 13 22 1016.6 0 12.7 17.6 23.0 59.7 49.2 167.7
02/09 14:30 32.9 16 5.67 3.8 7 17 1016.6 0 12.7 17.6 23.0 59.7 49.2 167.7
02/09 14:20 32.5 15 5.2 2.5 13 26 1016.9 0 11.8 17.1 21.8 56.5 45.1 153.3
02/09 14:10 33.1 16 5.73 3.9 15 24 1017 0 12.8 17.6 23.1 60.1 49.6 169.4
02/09 14:00 32.8 17 5.99 4.6 11 28 1017 0 13.4 18.0 23.9 62.2 52.2 178.5
02/09 13:50 32.3 18 6.18 5 17 24 1017.3 0 13.8 18.3 24.6 64.1 54.3 185.9
02/09 13:40 32.1 17 5.77 4 17 20 1017.5 0 13.0 17.9 23.5 61.1 50.6 172.7
02/09 13:30 33 17 6.05 4.7 13 26 1017.5 0 13.5 18.0 24.0 62.6 52.7 180.1
02/09 13:20 33 19 6.77 6.3 9 11 1017.8 0 15.0 18.9 26.1 68.1 59.5 204.3
02/09 13:10 31.8 18 6.01 4.6 15 22 1018 0 13.5 18.2 24.3 63.2 53.1 181.4
02/09 13:00 31.8 18 6.01 4.6 17 28 1018.1 0 13.5 18.2 24.3 63.2 53.1 181.4
02/09 12:50 32 20 6.75 6.2 15 20 1018.3 0 15.0 19.1 26.4 68.8 60.1 206.1
02/09 12:40 31 19 6.08 4.7 20 24 1018.6 0 13.6 18.5 24.7 64.4 54.3 185.6
02/09 12:30 31.3 20 6.51 5.7 9 19 1018.9 0 14.5 19.0 25.9 67.5 58.3 199.6
02/09 12:20 31.4 20 6.54 5.8 15 22 1019.3 0 14.6 19.0 26.0 67.7 58.5 200.5
02/09 12:10 31.5 21 6.9 6.5 11 15 1019.4 0 15.3 19.4 27.0 70.5 62.0 212.7
02/09 12:00 31.5 21 6.9 6.5 9 17 1019.6 0 15.3 19.4 27.0 70.5 62.0 212.7
02/09 11:50 30.9 21 6.69 6 11 20 1019.9 0 14.9 19.3 26.6 69.4 60.4 207.0
02/09 11:40 30.5 22 6.86 6.4 15 22 1020.1 0 15.2 19.6 27.2 71.1 62.4 214.0
02/09 11:30 30.5 22 6.86 6.4 15 24 1020.3 0 15.2 19.6 27.3 71.1 62.4 214.0
02/09 11:20 30.4 22 6.82 6.3 11 22 1020.4 0 15.2 19.6 27.2 70.9 62.1 212.9
02/09 11:10 30.7 23 7.24 7.2 11 19 1020.7 0 16.0 20.0 28.4 74.0 66.1 227.0
02/09 11:00 30.2 24 7.36 7.4 13 19 1020.8 0 16.3 20.3 28.9 75.5 67.7 232.6
02/09 10:50 29.7 24 7.16 7 11 19 1020.9 0 15.9 20.1 28.5 74.3 66.1 226.8
02/09 10:40 29.6 24 7.12 6.9 15 20 1021.1 0 15.8 20.1 28.4 74.1 65.7 225.7
02/09 10:30 29.6 26 7.72 8.1 13 20 1021.2 0 17.0 20.9 30.3 79.1 71.9 247.5
02/09 10:20 29.2 26 7.55 7.7 13 20 1021.2 0 16.7 20.8 29.9 78.0 70.5 242.4
02/09 10:10 28.7 27 7.63 7.9 13 19 1021.3 0 16.9 21.0 30.3 79.2 71.8 246.9
02/09 10:00 28.3 29 8.02 8.6 9 20 1021.4 0 17.7 21.6 31.7 82.9 76.3 262.6
02/09 09:50 27.9 30 8.11 8.7 13 17 1021.6 0 17.9 21.8 32.2 84.1 77.7 267.4
02/09 09:40 27.7 30 8.03 8.6 11 17 1021.6 0 17.8 21.7 32.0 83.6 77.0 265.0
02/09 09:30 27.2 31 8.07 8.6 15 17 1021.6 0 17.9 21.9 32.3 84.5 77.9 268.1
02/09 09:20 26.4 31 7.72 7.9 13 17 1021.6 0 17.2 21.6 31.4 82.2 74.8 257.3
02/09 09:10 26.4 32 7.97 8.4 9 15 1021.6 0 17.7 22.0 32.3 84.4 77.6 266.8
02/09 09:00 25.3 34 7.96 8.3 6 15 1021.5 0 17.7 22.2 32.7 85.4 78.5 270.0
02/09 08:50 23.9 37 8 8.3 6 9 1021.5 0 17.9 22.6 33.4 87.3 80.3 276.2
02/09 08:40 23.1 40 8.27 8.8 7 9 1021.5 0 18.5 23.2 34.6 90.7 84.2 289.9
02/09 08:30 21.7 42 8.01 8.2 7 9 1021.4 0 18.0 23.2 34.3 89.7 82.6 284.2
02/09 08:20 21.2 45 8.34 8.8 7 9 1021.5 0 18.7 23.8 35.7 93.5 87.1 299.6
02/09 08:10 20.1 46 8 8.1 7 11 1021.3 0 18.0 23.5 34.9 91.4 84.2 289.4
02/09 08:00 19.1 49 8.03 8.1 7 11 1021.3 0 18.1 23.8 35.5 92.9 85.6 294.3
02/09 07:50 18.4 50 7.86 7.8 7 11 1021.2 0 17.8 23.8 35.1 92.0 84.3 289.6
02/09 07:40 17.9 52 7.94 7.9 7 11 1021.1 0 18.0 24.0 35.7 93.3 85.8 294.8
02/09 07:30 17.4 52 7.71 7.5 7 11 1021 0 17.5 23.8 35.0 91.6 83.5 286.7
02/09 07:20 16.7 55 7.82 7.6 9 11 1020.9 0 17.8 24.1 35.7 93.5 85.6 294.0
02/09 07:10 15.7 58 7.76 7.5 9 11 1020.7 0 17.7 24.3 35.9 94.1 85.9 295.0
02/09 07:00 15 61 7.82 7.5 9 11 1020.6 0 17.9 24.6 36.5 95.5 87.4 300.2
02/09 06:50 14 63 7.6 7.1 7 9 1020.5 0 17.4 24.5 36.1 94.4 85.7 294.1
02/09 06:40 13.6 65 7.65 7.2 7 9 1020.4 0 17.6 24.7 36.4 95.4 86.8 297.8
02/09 06:30 13.5 66 7.72 7.3 7 9 1020.2 0 17.7 24.8 36.8 96.2 87.8 301.3
02/09 06:20 13.1 67 7.65 7.1 7 9 1020.2 0 17.6 24.8 36.7 96.0 87.4 299.7
02/09 06:10 13.2 67 7.69 7.2 7 9 1020 0 17.7 24.9 36.8 96.3 87.7 301.0
02/09 06:00 12.6 71 7.86 7.5 7 9 1019.7 0 18.1 25.3 37.7 98.8 90.6 311.0
02/09 05:50 12.8 69 7.73 7.3 7 9 1019.7 0 17.8 25.0 37.1 97.1 88.7 304.3
02/09 05:40 12.8 68 7.62 7 6 7 1019.6 0 17.5 24.8 36.7 96.0 87.3 299.3
02/09 05:30 13.1 68 7.76 7.3 9 9 1019.4 0 17.8 25.0 37.1 97.1 88.7 304.4
02/09 05:20 13.7 65 7.7 7.2 7 9 1019.4 0 17.7 24.7 36.6 95.7 87.3 299.4
02/09 05:10 13.8 65 7.74 7.3 9 11 1019.4 0 17.7 24.7 36.7 96.0 87.7 300.9
02/09 05:00 13.1 68 7.76 7.3 9 9 1019.2 0 17.8 25.0 37.1 97.0 88.7 304.4
02/09 04:50 12.6 71 7.86 7.5 7 9 1019.3 0 18.1 25.3 37.7 98.7 90.6 310.9
02/09 04:40 12.4 71 7.76 7.3 7 9 1019.2 0 17.9 25.2 37.4 97.9 89.5 307.1

Last Refresh: 02-Sep-2026 21:18:40

Bureau of Meteorology